createdAt,value
2019-06-01T00:00:11.274Z,12.78
2019-06-01T00:02:38.598Z,13.32
2019-06-01T00:05:07.589Z,13.30
2019-06-01T00:07:36.033Z,13.50
2019-06-01T00:10:06.523Z,13.48
2019-06-01T00:12:34.963Z,12.78
2019-06-01T00:15:05.331Z,14.90
2019-06-01T00:17:33.783Z,11.95
2019-06-01T00:20:03.447Z,13.03
2019-06-01T00:22:31.882Z,13.15
2019-06-01T00:25:00.352Z,11.97
2019-06-01T00:27:28.802Z,10.35
2019-06-01T00:29:57.640Z,13.83
2019-06-01T00:32:26.089Z,13.60
2019-06-01T00:34:54.791Z,13.80
2019-06-01T00:37:23.569Z,11.90
2019-06-01T00:39:52.072Z,14.78
2019-06-01T00:42:20.548Z,12.47
2019-06-01T00:44:48.997Z,12.45
2019-06-01T00:47:17.442Z,13.85
2019-06-01T00:49:46.745Z,13.90
2019-06-01T00:52:15.682Z,13.80
2019-06-01T00:54:45.181Z,15.38
2019-06-01T00:57:13.877Z,15.63
2019-06-01T00:59:43.604Z,15.75
2019-06-01T01:02:12.702Z,13.80
2019-06-01T01:04:41.225Z,15.28
2019-06-01T01:07:09.924Z,13.55
2019-06-01T01:09:38.407Z,14.30
2019-06-01T01:12:06.909Z,13.98
2019-06-01T01:14:35.619Z,15.38
2019-06-01T01:17:04.971Z,15.30
2019-06-01T01:19:33.572Z,13.43
2019-06-01T01:22:02.396Z,14.90
2019-06-01T01:24:30.851Z,15.75
2019-06-01T01:26:59.370Z,15.40
2019-06-01T01:29:27.882Z,15.48
2019-06-01T01:31:57.338Z,15.75
2019-06-01T01:34:25.859Z,16.85
2019-06-01T01:36:54.431Z,16.80
2019-06-01T01:39:22.941Z,16.90
2019-06-01T01:41:52.180Z,17.42
2019-06-01T01:44:20.673Z,18.37
2019-06-01T01:46:50.671Z,16.30
2019-06-01T01:49:19.188Z,17.70
2019-06-01T01:51:47.932Z,16.65
2019-06-01T01:54:16.375Z,15.93
2019-06-01T01:56:45.440Z,14.15
2019-06-01T01:59:13.874Z,16.67
2019-06-01T02:01:42.596Z,17.40
2019-06-01T02:04:11.304Z,16.75
2019-06-01T02:06:40.188Z,18.00
2019-06-01T02:09:09.000Z,16.27
2019-06-01T02:11:37.467Z,16.97
2019-06-01T02:14:05.978Z,16.95
2019-06-01T02:16:34.704Z,15.15
2019-06-01T02:19:03.141Z,16.67
2019-06-01T02:21:32.088Z,16.42
2019-06-01T02:24:01.255Z,16.30
2019-06-01T02:26:30.123Z,18.35
2019-06-01T02:28:59.521Z,20.48
2019-06-01T02:31:40.762Z,18.45
2019-06-01T02:33:59.217Z,19.45
2019-06-01T02:36:28.550Z,20.12
2019-06-01T02:38:58.437Z,20.62
2019-06-01T02:41:27.474Z,19.87
2019-06-01T02:43:57.358Z,18.92
2019-06-01T02:46:26.103Z,18.92
2019-06-01T02:48:55.465Z,20.75
2019-06-01T02:51:24.175Z,20.40
2019-06-01T02:53:52.614Z,20.80
2019-06-01T02:56:21.066Z,23.83
2019-06-01T02:58:49.521Z,20.00
2019-06-01T03:01:35.578Z,21.70
2019-06-01T03:04:09.877Z,22.13
2019-06-01T03:06:41.038Z,20.60
2019-06-01T03:09:10.411Z,20.30
2019-06-01T03:11:40.559Z,24.63
2019-06-01T03:14:10.752Z,23.98
2019-06-01T03:16:41.370Z,22.75
2019-06-01T03:19:10.480Z,20.62
2019-06-01T03:21:39.259Z,23.75
2019-06-01T03:24:10.449Z,23.20
2019-06-01T03:26:46.638Z,23.18
2019-06-01T03:29:18.495Z,18.80
2019-06-01T03:31:47.446Z,21.35
2019-06-01T03:34:16.096Z,20.17
2019-06-01T03:36:44.631Z,19.82
2019-06-01T03:39:13.233Z,17.57
2019-06-01T03:41:42.169Z,21.73
2019-06-01T03:44:10.622Z,21.30
2019-06-01T03:46:39.074Z,20.60
2019-06-01T03:49:07.733Z,21.42
2019-06-01T03:51:36.314Z,22.45
2019-06-01T03:54:06.400Z,21.42
2019-06-01T03:56:35.112Z,21.57
2019-06-01T03:59:03.568Z,20.68
2019-06-01T04:01:32.085Z,20.50
2019-06-01T04:04:00.965Z,20.43
2019-06-01T04:06:29.546Z,19.70
2019-06-01T04:08:58.000Z,19.62
2019-06-01T04:11:26.699Z,20.08
2019-06-01T04:13:55.166Z,17.90
2019-06-01T04:16:23.604Z,19.02
2019-06-01T04:18:52.067Z,20.70
2019-06-01T04:21:20.503Z,19.10
2019-06-01T04:23:48.967Z,19.65
2019-06-01T04:26:17.479Z,16.95
2019-06-01T04:28:46.191Z,17.75
2019-06-01T04:31:14.718Z,17.80
2019-06-01T04:33:43.551Z,18.25
2019-06-01T04:36:13.088Z,17.05
2019-06-01T04:38:42.048Z,17.80
2019-06-01T04:41:11.883Z,16.48
2019-06-01T04:43:40.857Z,17.17
2019-06-01T04:46:10.328Z,17.37
2019-06-01T04:48:39.191Z,17.00
2019-06-01T04:51:08.720Z,16.67
2019-06-01T04:53:37.387Z,16.40
2019-06-01T04:56:07.037Z,16.82
2019-06-01T04:58:35.682Z,14.90
2019-06-01T05:01:04.818Z,16.30
2019-06-01T05:03:33.310Z,17.07
2019-06-01T05:06:01.784Z,17.60
2019-06-01T05:08:30.227Z,16.37
2019-06-01T05:10:58.693Z,16.57
2019-06-01T05:13:27.404Z,14.98
2019-06-01T05:15:55.927Z,15.90
2019-06-01T05:18:24.647Z,16.10
2019-06-01T05:20:53.110Z,14.75
2019-06-01T05:23:21.550Z,15.20
2019-06-01T05:25:53.165Z,15.40
2019-06-01T05:28:20.186Z,14.07
2019-06-01T05:30:48.654Z,12.93
2019-06-01T05:33:29.498Z,14.47
2019-06-01T05:35:47.592Z,14.83
2019-06-01T05:38:16.520Z,15.70
2019-06-01T05:40:45.174Z,14.13
2019-06-01T05:43:16.972Z,16.12
2019-06-01T05:45:43.792Z,16.45
2019-06-01T05:48:16.399Z,14.47
2019-06-01T05:50:43.188Z,15.65
2019-06-01T05:53:12.481Z,16.77
2019-06-01T05:55:41.076Z,14.75
2019-06-01T05:58:10.854Z,16.97
2019-06-01T06:00:43.905Z,17.20
2019-06-01T06:03:15.453Z,16.82
2019-06-01T06:05:42.914Z,16.90
2019-06-01T06:08:12.808Z,17.05
2019-06-01T06:10:41.667Z,16.65
2019-06-01T06:13:11.094Z,17.98
2019-06-01T06:15:39.643Z,19.00
2019-06-01T06:18:08.082Z,21.12
2019-06-01T06:20:36.950Z,20.20
2019-06-01T06:23:05.390Z,19.70
2019-06-01T06:25:36.578Z,21.25
2019-06-01T06:28:05.050Z,19.92
2019-06-01T06:30:33.508Z,22.15
2019-06-01T06:33:02.161Z,21.87
2019-06-01T06:35:30.793Z,22.05
2019-06-01T06:37:59.240Z,21.12
2019-06-01T06:40:27.777Z,21.77
2019-06-01T06:42:56.472Z,22.85
2019-06-01T06:45:25.290Z,21.62
2019-06-01T06:47:54.052Z,22.07
2019-06-01T06:50:23.564Z,20.85
2019-06-01T06:52:52.479Z,21.70
2019-06-01T06:55:21.991Z,19.87
2019-06-01T06:57:50.518Z,17.17
2019-06-01T07:00:19.060Z,20.00
2019-06-01T07:02:47.497Z,18.48
2019-06-01T07:05:17.130Z,18.50
2019-06-01T07:07:45.795Z,18.87
2019-06-01T07:10:14.717Z,18.42
2019-06-01T07:12:43.167Z,15.35
2019-06-01T07:15:12.334Z,14.60
2019-06-01T07:17:40.767Z,14.33
2019-06-01T07:20:09.373Z,14.73
2019-06-01T07:22:37.832Z,15.18
2019-06-01T07:25:06.929Z,13.62
2019-06-01T07:27:35.456Z,13.10
2019-06-01T07:30:06.075Z,14.10
2019-06-01T07:32:34.520Z,12.73
2019-06-01T07:35:03.631Z,11.63
2019-06-01T07:37:32.740Z,13.05
2019-06-01T07:40:01.581Z,12.58
2019-06-01T07:42:30.047Z,12.03
2019-06-01T07:44:58.546Z,12.45
2019-06-01T07:47:27.345Z,11.95
2019-06-01T07:49:56.323Z,11.15
2019-06-01T07:52:26.125Z,10.80
2019-06-01T07:54:54.998Z,11.28
2019-06-01T07:57:23.609Z,10.28
2019-06-01T07:59:52.171Z,8.40
2019-06-01T08:02:25.404Z,8.83
2019-06-01T08:04:54.432Z,8.95
2019-06-01T08:07:22.909Z,8.78
2019-06-01T08:09:51.544Z,8.50
2019-06-01T08:12:21.167Z,8.13
2019-06-01T08:14:49.711Z,7.83
2019-06-01T08:17:18.157Z,9.08
2019-06-01T08:19:46.634Z,7.15
2019-06-01T08:22:15.138Z,8.20
2019-06-01T08:24:43.583Z,7.35
2019-06-01T08:27:12.030Z,8.15
2019-06-01T08:29:40.479Z,7.83
2019-06-01T08:32:09.012Z,8.45
2019-06-01T08:34:37.706Z,8.53
2019-06-01T08:37:06.171Z,7.53
2019-06-01T08:39:34.631Z,6.85
2019-06-01T08:42:03.334Z,6.70
2019-06-01T08:44:31.787Z,6.47
2019-06-01T08:47:00.223Z,6.60
2019-06-01T08:49:30.566Z,6.28
2019-06-01T08:51:59.105Z,6.83
2019-06-01T08:54:28.153Z,6.45
2019-06-01T08:56:56.786Z,6.25
2019-06-01T08:59:26.235Z,6.60
2019-06-01T09:01:54.715Z,6.12
2019-06-01T09:04:23.167Z,6.47
2019-06-01T09:06:51.921Z,7.12
2019-06-01T09:09:20.783Z,5.62
2019-06-01T09:11:49.533Z,5.03
2019-06-01T09:14:18.056Z,4.83
2019-06-01T09:16:46.555Z,4.40
2019-06-01T09:19:15.095Z,5.00
2019-06-01T09:21:43.541Z,4.33
2019-06-01T09:24:12.243Z,5.72
2019-06-01T09:26:40.679Z,4.90
2019-06-01T09:29:09.122Z,5.67
2019-06-01T09:31:37.584Z,4.95
2019-06-01T09:34:06.416Z,5.25
2019-06-01T09:36:35.125Z,4.60
2019-06-01T09:39:04.734Z,6.00
2019-06-01T09:41:33.234Z,5.22
2019-06-01T09:44:01.684Z,5.00
2019-06-01T09:46:32.259Z,4.45
2019-06-01T09:49:00.315Z,3.85
2019-06-01T09:51:29.470Z,4.22
2019-06-01T09:53:58.148Z,3.83
2019-06-01T09:56:29.036Z,4.37
2019-06-01T09:58:56.755Z,4.60
2019-06-01T10:01:25.469Z,3.62
2019-06-01T10:03:54.234Z,4.12
2019-06-01T10:06:22.700Z,3.87
2019-06-01T10:08:51.405Z,4.25
2019-06-01T10:11:20.200Z,4.08
2019-06-01T10:13:48.915Z,4.15
2019-06-01T10:16:17.392Z,4.03
2019-06-01T10:18:45.843Z,4.47
2019-06-01T10:21:14.314Z,3.60
2019-06-01T10:23:42.909Z,4.30
2019-06-01T10:26:11.369Z,3.80
2019-06-01T10:28:39.877Z,4.72
2019-06-01T10:31:08.436Z,3.58
2019-06-01T10:33:37.366Z,4.78
2019-06-01T10:36:19.997Z,4.40
2019-06-01T10:38:37.385Z,3.83
2019-06-01T10:41:06.050Z,3.80
2019-06-01T10:43:35.618Z,4.28
2019-06-01T10:46:04.475Z,3.50
2019-06-01T10:48:34.401Z,3.87
2019-06-01T10:51:03.072Z,3.95
2019-06-01T10:53:32.049Z,3.98
2019-06-01T10:56:00.624Z,3.37
2019-06-01T10:58:29.064Z,3.60
2019-06-01T11:00:57.507Z,3.50
2019-06-01T11:03:25.962Z,3.80
2019-06-01T11:05:54.408Z,4.25
2019-06-01T11:08:23.139Z,3.50
2019-06-01T11:10:51.940Z,4.28
2019-06-01T11:13:20.370Z,3.85
2019-06-01T11:15:48.834Z,3.22
2019-06-01T11:18:17.269Z,4.25
2019-06-01T11:20:45.716Z,3.27
2019-06-01T11:23:14.456Z,3.50
2019-06-01T11:25:43.728Z,3.92
2019-06-01T11:28:12.352Z,3.70
2019-06-01T11:30:41.867Z,3.00
2019-06-01T11:33:10.436Z,3.08
2019-06-01T11:35:39.172Z,2.87
2019-06-01T11:38:08.092Z,3.42
2019-06-01T11:40:36.884Z,2.87
2019-06-01T11:43:05.311Z,3.20
2019-06-01T11:45:34.870Z,3.42
2019-06-01T11:48:03.718Z,2.90
2019-06-01T11:50:32.162Z,3.00
2019-06-01T11:53:00.604Z,3.22
2019-06-01T11:55:29.403Z,3.33
2019-06-01T11:57:57.839Z,3.10
2019-06-01T12:00:26.715Z,2.90
2019-06-01T12:02:55.227Z,3.00
2019-06-01T12:05:23.666Z,2.70
2019-06-01T12:07:52.526Z,3.10
2019-06-01T12:10:20.963Z,2.80
2019-06-01T12:12:49.412Z,2.75
2019-06-01T12:15:18.381Z,2.70
2019-06-01T12:17:47.359Z,3.20
2019-06-01T12:20:16.298Z,2.83
2019-06-01T12:22:45.173Z,2.70
2019-06-01T12:25:14.012Z,2.33
2019-06-01T12:27:43.547Z,3.35
2019-06-01T12:30:12.811Z,3.20
2019-06-01T12:32:41.947Z,2.30
2019-06-01T12:35:10.899Z,2.62
2019-06-01T12:37:56.105Z,2.20
2019-06-01T12:40:09.945Z,2.40
2019-06-01T12:42:39.809Z,2.40
2019-06-01T12:45:11.793Z,2.30
2019-06-01T12:47:40.239Z,2.40
2019-06-01T12:50:09.129Z,1.98
2019-06-01T12:52:37.742Z,2.42
2019-06-01T12:55:06.838Z,2.58
2019-06-01T12:57:36.815Z,2.30
2019-06-01T13:00:10.226Z,2.65
2019-06-01T13:02:40.196Z,2.10
2019-06-01T13:05:09.489Z,3.05
2019-06-01T13:07:50.934Z,2.80
2019-06-01T13:10:09.086Z,2.30
2019-06-01T13:12:37.870Z,2.15
2019-06-01T13:15:07.394Z,2.58
2019-06-01T13:17:36.102Z,2.50
2019-06-01T13:20:09.139Z,2.65
2019-06-01T13:22:37.622Z,2.40
2019-06-01T13:25:06.957Z,2.85
2019-06-01T13:27:35.575Z,2.60
2019-06-01T13:30:06.424Z,2.12
2019-06-01T13:32:35.135Z,2.50
2019-06-01T13:35:06.955Z,2.10
2019-06-01T13:37:35.656Z,2.00
2019-06-01T13:40:07.312Z,2.00
2019-06-01T13:42:35.831Z,2.30
2019-06-01T13:45:08.711Z,2.10
2019-06-01T13:47:37.164Z,2.20
2019-06-01T13:50:07.434Z,2.27
2019-06-01T13:52:35.906Z,2.02
2019-06-01T13:55:06.421Z,2.50
2019-06-01T13:57:38.572Z,2.40
2019-06-01T14:00:08.476Z,2.30
2019-06-01T14:02:37.170Z,2.60
2019-06-01T14:05:07.447Z,2.47
2019-06-01T14:07:36.168Z,2.30
2019-06-01T14:10:06.541Z,2.60
2019-06-01T14:12:35.122Z,2.05
2019-06-01T14:15:05.240Z,2.30
2019-06-01T14:17:34.079Z,2.77
2019-06-01T14:20:02.568Z,2.60
2019-06-01T14:22:31.011Z,2.40
2019-06-01T14:25:10.273Z,2.27
2019-06-01T14:27:30.367Z,2.10
2019-06-01T14:29:58.835Z,2.35
2019-06-01T14:32:27.733Z,2.25
2019-06-01T14:34:56.999Z,2.30
2019-06-01T14:37:25.923Z,2.15
2019-06-01T14:39:54.971Z,2.20
2019-06-01T14:42:23.594Z,2.35
2019-06-01T14:44:52.174Z,2.40
2019-06-01T14:47:20.944Z,2.10
2019-06-01T14:49:49.495Z,1.92
2019-06-01T14:52:18.023Z,2.47
2019-06-01T14:54:47.651Z,2.30
2019-06-01T14:57:16.259Z,2.02
2019-06-01T14:59:44.710Z,2.12
2019-06-01T15:02:13.183Z,2.58
2019-06-01T15:04:41.975Z,2.20
2019-06-01T15:07:10.423Z,2.05
2019-06-01T15:09:39.163Z,2.08
2019-06-01T15:12:07.721Z,2.30
2019-06-01T15:14:36.240Z,2.05
2019-06-01T15:17:04.755Z,1.90
2019-06-01T15:19:33.476Z,2.00
2019-06-01T15:22:03.529Z,1.82
2019-06-01T15:24:32.213Z,2.00
2019-06-01T15:27:00.655Z,2.20
2019-06-01T15:29:29.377Z,2.30
2019-06-01T15:31:58.051Z,1.82
2019-06-01T15:34:26.935Z,2.25
2019-06-01T15:36:55.620Z,2.10
2019-06-01T15:39:25.405Z,2.25
2019-06-01T15:41:55.209Z,2.10
2019-06-01T15:44:23.862Z,2.45
2019-06-01T15:46:53.744Z,1.90
2019-06-01T15:49:22.277Z,2.08
2019-06-01T15:51:51.841Z,1.80
2019-06-01T15:54:20.360Z,1.72
2019-06-01T15:56:48.797Z,2.00
2019-06-01T15:59:17.574Z,2.20
2019-06-01T16:01:46.043Z,2.22
2019-06-01T16:04:14.493Z,1.80
2019-06-01T16:06:43.232Z,1.90
2019-06-01T16:09:12.019Z,2.05
2019-06-01T16:11:40.488Z,2.00
2019-06-01T16:14:08.923Z,2.10
2019-06-01T16:16:37.383Z,2.35
2019-06-01T16:19:07.994Z,2.08
2019-06-01T16:21:36.421Z,2.05
2019-06-01T16:24:05.226Z,2.12
2019-06-01T16:26:34.054Z,2.52
2019-06-01T16:29:03.471Z,1.98
2019-06-01T16:31:32.671Z,2.52
2019-06-01T16:34:01.110Z,2.37
2019-06-01T16:36:29.555Z,2.70
2019-06-01T16:39:02.853Z,2.12
2019-06-01T16:41:28.435Z,2.35
2019-06-01T16:43:57.590Z,2.65
2019-06-01T16:46:26.363Z,2.58
2019-06-01T16:48:55.470Z,2.87
2019-06-01T16:51:24.274Z,2.65
2019-06-01T16:53:52.734Z,2.67
2019-06-01T16:56:21.242Z,2.77
2019-06-01T16:58:49.953Z,2.50
2019-06-01T17:01:18.400Z,2.75
2019-06-01T17:03:47.110Z,2.83
2019-06-01T17:06:15.790Z,2.47
2019-06-01T17:08:44.483Z,2.50
2019-06-01T17:11:12.919Z,2.75
2019-06-01T17:13:41.365Z,2.80
2019-06-01T17:16:09.824Z,2.50
2019-06-01T17:18:38.515Z,2.15
2019-06-01T17:21:07.566Z,2.52
2019-06-01T17:23:36.331Z,2.22
2019-06-01T17:26:06.567Z,2.62
2019-06-01T17:28:34.939Z,2.65
2019-06-01T17:31:04.308Z,2.75
2019-06-01T17:33:32.833Z,3.50
2019-06-01T17:36:02.712Z,3.80
2019-06-01T17:38:31.247Z,3.80
2019-06-01T17:41:00.247Z,3.12
2019-06-01T17:43:28.827Z,2.90
2019-06-01T17:45:57.268Z,3.08
2019-06-01T17:48:27.221Z,2.65
2019-06-01T17:50:56.103Z,2.77
2019-06-01T17:53:24.907Z,2.40
2019-06-01T17:55:53.535Z,2.83
2019-06-01T17:58:22.375Z,3.02
2019-06-01T18:00:51.091Z,2.98
2019-06-01T18:03:19.550Z,2.85
2019-06-01T18:05:47.997Z,2.20
2019-06-01T18:08:16.760Z,2.52
2019-06-01T18:10:53.838Z,2.62
2019-06-01T18:13:15.889Z,2.60
2019-06-01T18:15:44.591Z,2.62
2019-06-01T18:18:13.118Z,2.95
2019-06-01T18:20:41.970Z,3.52
2019-06-01T18:23:11.455Z,3.30
2019-06-01T18:25:40.785Z,2.62
2019-06-01T18:28:15.032Z,2.70
2019-06-01T18:30:39.635Z,3.27
2019-06-01T18:33:09.001Z,2.80
2019-06-01T18:35:37.928Z,2.83
2019-06-01T18:38:07.660Z,2.70
2019-06-01T18:40:36.690Z,2.70
2019-06-01T18:43:08.206Z,3.25
2019-06-01T18:45:37.052Z,3.00
2019-06-01T18:48:06.352Z,3.08
2019-06-01T18:50:35.151Z,3.15
2019-06-01T18:53:03.931Z,3.90
2019-06-01T18:55:35.570Z,3.95
2019-06-01T18:58:03.900Z,3.60
2019-06-01T19:00:32.770Z,3.45
2019-06-01T19:03:01.204Z,3.33
2019-06-01T19:05:32.175Z,3.47
2019-06-01T19:08:00.607Z,2.92
2019-06-01T19:10:30.591Z,3.77
2019-06-01T19:12:59.036Z,3.90
2019-06-01T19:15:28.965Z,4.30
2019-06-01T19:17:57.738Z,3.85
2019-06-01T19:20:26.198Z,4.15
2019-06-01T19:22:54.974Z,3.55
2019-06-01T19:25:23.732Z,3.33
2019-06-01T19:27:52.603Z,3.30
2019-06-01T19:30:36.074Z,4.00
2019-06-01T19:33:06.912Z,4.00
2019-06-01T19:35:35.514Z,4.12
2019-06-01T19:38:04.663Z,4.17
2019-06-01T19:40:35.300Z,4.00
2019-06-01T19:43:05.179Z,3.95
2019-06-01T19:45:33.695Z,4.15
2019-06-01T19:48:02.127Z,4.62
2019-06-01T19:50:30.594Z,4.58
2019-06-01T19:52:59.284Z,5.33
2019-06-01T19:55:27.808Z,4.42
2019-06-01T19:57:56.251Z,4.17
2019-06-01T20:00:24.847Z,4.15
2019-06-01T20:02:53.620Z,4.92
2019-06-01T20:05:22.949Z,5.60
2019-06-01T20:07:51.915Z,4.75
2019-06-01T20:10:20.644Z,4.90
2019-06-01T20:13:13.092Z,4.25
2019-06-01T20:15:56.273Z,4.42
2019-06-01T20:18:17.190Z,4.70
2019-06-01T20:20:45.859Z,4.15
2019-06-01T20:23:15.248Z,4.80
2019-06-01T20:25:43.933Z,4.65
2019-06-01T20:28:13.478Z,4.83
2019-06-01T20:30:42.196Z,5.67
2019-06-01T20:33:11.898Z,4.75
2019-06-01T20:35:40.572Z,4.75
2019-06-01T20:38:09.004Z,6.33
2019-06-01T20:40:37.485Z,5.03
2019-06-01T20:43:06.174Z,5.25
2019-06-01T20:45:34.928Z,5.60
2019-06-01T20:48:03.645Z,5.33
2019-06-01T20:50:32.106Z,6.22
2019-06-01T20:53:00.568Z,5.30
2019-06-01T20:55:29.262Z,5.47
2019-06-01T20:57:57.962Z,5.47
2019-06-01T21:00:26.668Z,5.17
2019-06-01T21:02:55.420Z,5.35
2019-06-01T21:05:24.133Z,5.95
2019-06-01T21:07:56.828Z,5.45
2019-06-01T21:10:24.118Z,5.25
2019-06-01T21:12:52.819Z,5.42
2019-06-01T21:15:21.391Z,5.70
2019-06-01T21:17:50.422Z,5.62
2019-06-01T21:20:25.322Z,5.80
2019-06-01T21:22:49.678Z,5.75
2019-06-01T21:25:18.812Z,5.62
2019-06-01T21:27:47.669Z,5.70
2019-06-01T21:30:18.770Z,5.92
2019-06-01T21:32:48.054Z,4.67
2019-06-01T21:35:19.329Z,5.75
2019-06-01T21:37:48.011Z,5.30
2019-06-01T21:40:17.321Z,5.58
2019-06-01T21:43:00.207Z,5.62
2019-06-01T21:45:17.455Z,4.60
2019-06-01T21:47:46.161Z,5.55
2019-06-01T21:50:16.515Z,4.58
2019-06-01T21:52:46.819Z,5.60
2019-06-01T21:55:16.039Z,5.20
2019-06-01T21:57:44.963Z,4.83
2019-06-01T22:00:18.672Z,4.62
2019-06-01T22:02:47.644Z,5.72
2019-06-01T22:05:16.816Z,5.75
2019-06-01T22:07:45.343Z,5.03
2019-06-01T22:10:14.320Z,5.05
2019-06-01T22:12:42.755Z,5.08
2019-06-01T22:15:11.483Z,4.83
2019-06-01T22:17:40.267Z,5.55
2019-06-01T22:20:09.043Z,5.40
2019-06-01T22:22:37.504Z,4.95
2019-06-01T22:25:06.699Z,5.62
2019-06-01T22:27:35.195Z,5.90
2019-06-01T22:30:05.550Z,5.75
2019-06-01T22:32:34.333Z,5.85
2019-06-01T22:35:03.418Z,5.40
2019-06-01T22:37:32.370Z,8.10
2019-06-01T22:40:00.874Z,5.15
2019-06-01T22:42:29.311Z,5.92
2019-06-01T22:44:57.750Z,5.53
2019-06-01T22:47:26.648Z,5.35
2019-06-01T22:49:55.489Z,5.53
2019-06-01T22:52:24.979Z,5.40
2019-06-01T22:54:53.557Z,5.97
2019-06-01T22:57:22.403Z,5.00
2019-06-01T22:59:50.955Z,6.12
2019-06-01T23:02:19.399Z,6.42
2019-06-01T23:04:47.834Z,6.28
2019-06-01T23:07:16.291Z,6.80
2019-06-01T23:09:44.735Z,6.17
2019-06-01T23:12:13.451Z,6.25
2019-06-01T23:14:42.211Z,5.78
2019-06-01T23:17:10.672Z,6.15
2019-06-01T23:19:39.116Z,6.75
2019-06-01T23:22:07.551Z,6.50
2019-06-01T23:24:36.323Z,6.33
2019-06-01T23:27:05.130Z,7.00
2019-06-01T23:29:33.574Z,7.37
2019-06-01T23:32:02.027Z,7.28
2019-06-01T23:34:30.738Z,7.05
2019-06-01T23:36:59.394Z,7.35
2019-06-01T23:39:28.762Z,7.50
2019-06-01T23:41:57.650Z,7.90
2019-06-01T23:44:29.475Z,8.25
2019-06-01T23:46:56.326Z,8.53
2019-06-01T23:49:25.142Z,7.30
2019-06-01T23:51:54.125Z,7.08
2019-06-01T23:54:23.549Z,7.40
2019-06-01T23:56:52.438Z,7.67
2019-06-01T23:59:20.894Z,6.90
